Home > Products > Valid Products > MTR

000
SAUS45 KTWC 031252
MTRSAD
METAR KSAD 031251Z AUTO 07004KT 10SM CLR 21/14 A2998 RMK AO2 SLP095
T02060144





000
SAUS45 KTWC 031152
MTRSAD
METAR KSAD 031151Z AUTO 00000KT 10SM CLR 21/14 A2996 RMK AO2 SLP087
70001 T02060144 10267 20206 53003





000
SAUS45 KTWC 031152
MTRSAD
METAR KSAD 031151Z AUTO 00000KT 10SM CLR 21/14 A2996 RMK AO2 SLP087
70001 T02060144 10267 20206 53003





000
SAUS45 KTWC 031052
MTRSAD
METAR KSAD 031051Z AUTO 00000KT 10SM CLR 22/14 A2994 RMK AO2 SLP081
T02170144





000
SAUS45 KTWC 030953
MTRSAD
METAR KSAD 030951Z AUTO 00000KT 10SM CLR 24/13 A2994 RMK AO2 SLP079
T02440133





000
SAUS45 KTWC 030852
MTRSAD
METAR KSAD 030851Z AUTO 09008KT 10SM CLR 26/13 A2995 RMK AO2 SLP078
T02560133 50002





000
SAUS45 KTWC 030852
MTRSAD
METAR KSAD 030851Z AUTO 09008KT 10SM CLR 26/13 A2995 RMK AO2 SLP078
T02560133 50002





000
SAUS45 KTWC 030752
MTRSAD
METAR KSAD 030751Z AUTO 10007KT 10SM CLR 26/14 A2995 RMK AO2 SLP086
T02560144





000
SAUS45 KTWC 030752
MTRSAD
METAR KSAD 030751Z AUTO 10007KT 10SM CLR 26/14 A2995 RMK AO2 SLP086
T02560144





000
SAUS45 KTWC 030653
MTRSAD
METAR KSAD 030651Z AUTO 05005KT 10SM CLR 25/16 A2995 RMK AO2 SLP082
T02500161 403720228





000
SAUS45 KTWC 030552
MTRSAD
METAR KSAD 030551Z AUTO 19004KT 10SM CLR 27/14 A2994 RMK AO2 LTG
DSNT SE SLP080 60001 T02670139 10367 20250 53011





000
SAUS45 KTWC 030452
MTRSAD
METAR KSAD 030451Z AUTO 27005KT 10SM CLR 26/16 A2993 RMK AO2 LTG
DSNT SE AND S SLP078 T02610161





000
SAUS45 KTWC 030352
MTRSAD
METAR KSAD 030351Z AUTO 04009KT 10SM CLR 29/14 A2991 RMK AO2 PK WND
04028/0309 SLP068 T02890139





000
SAUS45 KTWC 030326
MTRSAD
SPECI KSAD 030324Z AUTO 05019G26KT 10SM CLR 30/12 A2990 RMK AO2 PK
WND 04028/0309 T03000117





000
SAUS45 KTWC 030326
MTRSAD
SPECI KSAD 030324Z AUTO 05019G26KT 10SM CLR 30/12 A2990 RMK AO2 PK
WND 04028/0309 T03000117





000
SAUS45 KTWC 030252
MTRSAD
METAR KSAD 030251Z AUTO 03004KT 10SM VCTS FEW100 30/14 A2990 RMK AO2
PK WND 28031/0153 WSHFT 0156 LTG DSNT N AND NE RAB0152E26
TSE14B21E36 SLP069 P0001 60001 T03000139 53012





000
SAUS45 KTWC 030252
MTRSAD
METAR KSAD 030251Z AUTO 03004KT 10SM VCTS FEW100 30/14 A2990 RMK AO2
PK WND 28031/0153 WSHFT 0156 LTG DSNT N AND NE RAB0152E26
TSE14B21E36 SLP069 P0001 60001 T03000139 53012





000
SAUS45 KTWC 030243
MTRSAD
SPECI KSAD 030242Z AUTO VRB03KT 10SM VCTS FEW080 BKN100 30/15 A2991
RMK AO2 PK WND 28031/0153 WSHFT 0156 LTG DSNT N AND NE RAB0152E26
TSE14B21E36 P0001 T03000150





000
SAUS45 KTWC 030229
MTRSAD
SPECI KSAD 030227Z AUTO 02008KT 10SM TS FEW080 BKN100 31/14 A2988
RMK AO2 PK WND 28031/0153 WSHFT 0156 LTG DSNT N RAB0152E26 TSE14B21
P0001 T03060144





000
SAUS45 KTWC 030229
MTRSAD
SPECI KSAD 030227Z AUTO 02008KT 10SM TS FEW080 BKN100 31/14 A2988
RMK AO2 PK WND 28031/0153 WSHFT 0156 LTG DSNT N RAB0152E26 TSE14B21
P0001 T03060144





000
SAUS45 KTWC 030221
MTRSAD
SPECI KSAD 030220Z AUTO 36009G19KT 10SM VCTS -RA FEW065 SCT080
BKN110 31/14 A2988 RMK AO2 PK WND 28031/0153 WSHFT 0156 LTG DSNT N
AND NE RAB0152 TSE14 P0001 T03060139





000
SAUS45 KTWC 030212
MTRSAD
SPECI KSAD 030210Z AUTO 04012KT 5SM TSRA BKN100 28/16 A2988 RMK AO2
PK WND 28031/0153 WSHFT 0156 LTG DSNT N RAB0152 P0001 T02780161





000
SAUS45 KTWC 030212
MTRSAD
SPECI KSAD 030210Z AUTO 04012KT 5SM TSRA BKN100 28/16 A2988 RMK AO2
PK WND 28031/0153 WSHFT 0156 LTG DSNT N RAB0152 P0001 T02780161





000
SAUS45 KTWC 030152
MTRSAD
METAR KSAD 030151Z AUTO 27020G28KT 10SM TS SCT110 33/13 A2987 RMK
AO2 PK WND 26028/0146 TSB31 SLP055 T03280128





000
SAUS45 KTWC 030138
MTRSAD
SPECI KSAD 030137Z AUTO 26019G26KT 10SM TS BKN110 33/12 A2987 RMK
AO2 PK WND 26026/0136 TSB31 T03330122





000
SAUS45 KTWC 030120
MTRSAD
SPECI KSAD 030119Z AUTO 31011KT 10SM VCTS FEW110 35/11 A2986 RMK AO2
T03500111





000
SAUS45 KTWC 030052
MTRSAD
METAR KSAD 030051Z AUTO 27006KT 10SM SCT110 35/12 A2985 RMK AO2
SLP049 T03500117





000
SAUS45 KTWC 022353
MTRSAD
METAR KSAD 022351Z AUTO 30008G17KT 10SM FEW110 36/12 A2987 RMK AO2
SLP053 T03610117 10372 20306 56025





000
SAUS45 KTWC 022353
MTRSAD
METAR KSAD 022351Z AUTO 30008G17KT 10SM FEW110 36/12 A2987 RMK AO2
SLP053 T03610117 10372 20306 56025





000
SAUS45 KTWC 022253
MTRSAD
METAR KSAD 022251Z AUTO 26010G17KT 240V320 10SM CLR 37/12 A2989 RMK
AO2 SLP060 T03670122





000
SAUS45 KTWC 022253
MTRSAD
METAR KSAD 022251Z AUTO 26010G17KT 240V320 10SM CLR 37/12 A2989 RMK
AO2 SLP060 T03670122





000
SAUS45 KTWC 022152
MTRSAD
METAR KSAD 022151Z AUTO VRB03KT 10SM CLR 35/12 A2992 RMK AO2 SLP068
T03500117





000
SAUS45 KTWC 022152
MTRSAD
METAR KSAD 022151Z AUTO VRB03KT 10SM CLR 35/12 A2992 RMK AO2 SLP068
T03500117





000
SAUS45 KTWC 022052
MTRSAD
METAR KSAD 022051Z AUTO 29005KT 10SM CLR 35/13 A2995 RMK AO2 LTG
DSNT NE AND S SLP078 T03500128 58019





000
SAUS45 KTWC 022035
MTRSAD
SPECI KSAD 022034Z AUTO 28006KT 10SM CLR 34/14 A2996 RMK AO2 LTG
DSNT NE AND S T03390144





000
SAUS45 KTWC 022020
MTRSAD
SPECI KSAD 022019Z AUTO 24012KT 10SM VCTS CLR 32/15 A2996 RMK AO2
LTG DSNT NE AND S T03170150





000
SAUS45 KTWC 022012
MTRSAD
SPECI KSAD 022010Z AUTO 24011KT 10SM CLR 31/15 A2997 RMK AO2 LTG
DSNT NE AND S T03110150





000
SAUS45 KTWC 021952
MTRSAD
METAR KSAD 021951Z AUTO 23012KT 10SM VCTS CLR 31/14 A2997 RMK AO2
LTG DSNT ALQDS SLP090 T03110144





000
SAUS45 KTWC 021936
MTRSAD
SPECI KSAD 021935Z AUTO 25010KT 10SM VCTS CLR 33/14 A2998 RMK AO2
LTG DSNT N AND SW T03280144





000
SAUS45 KTWC 021852
MTRSAD
METAR KSAD 021851Z AUTO VRB03KT 10SM CLR 34/14 A2999 RMK AO2 LTG
DSNT N AND SW SLP091 T03390144





000
SAUS45 KTWC 021852
MTRSAD
METAR KSAD 021851Z AUTO VRB03KT 10SM CLR 34/14 A2999 RMK AO2 LTG
DSNT N AND SW SLP091 T03390144





000
SAUS45 KTWC 021753
MTRSAD
METAR KSAD 021751Z AUTO 00000KT 10SM CLR 31/16 A3001 RMK AO2 SLP100
T03110156 10311 20239 58005





000
SAUS45 KTWC 021652
MTRSAD
METAR KSAD 021651Z AUTO VRB05KT 10SM CLR 29/16 A3003 RMK AO2 SLP107
T02940161





000
SAUS45 KTWC 021552
MTRSAD
METAR KSAD 021551Z AUTO 00000KT 10SM CLR 28/17 A3003 RMK AO2 SLP111
T02830167





000
SAUS45 KTWC 021452
MTRSAD
METAR KSAD 021451Z AUTO 28003KT 10SM CLR 26/18 A3003 RMK AO2 SLP112
T02610178 52015





000
SAUS45 KTWC 021353
MTRSAD
METAR KSAD 021351Z AUTO 25004KT 10SM CLR 25/17 A3001 RMK AO2 SLP107
T02500172





000
SAUS45 KTWC 021252
MTRSAD
METAR KSAD 021251Z AUTO 34004KT 10SM CLR 24/17 A2999 RMK AO2 SLP101
T02390172





000
SAUS45 KTWC 021153
MTRSAD
METAR KSAD 021151Z AUTO 32003KT 10SM FEW120 24/18 A2998 RMK AO2
SLP092 60000 T02390178 10294 20228 57004





000
SAUS45 KTWC 021052
MTRSAD
METAR KSAD 021051Z AUTO 30005KT 10SM CLR 23/18 A2997 RMK AO2
RAB22E35 SLP094 P0000 T02330183





000
SAUS45 KTWC 021014
MTRSAD
SPECI KSAD 021013Z AUTO 24008KT 10SM FEW110 24/16 A2999 RMK AO2 LTG
DSNT N T02440161





000
SAUS45 KTWC 020952
MTRSAD
METAR KSAD 020951Z AUTO 02004KT 10SM VCTS FEW110 26/16 A2999 RMK AO2
LTG DSNT N AND NW SLP095 T02610161





000
SAUS45 KTWC 020952
MTRSAD
METAR KSAD 020951Z AUTO 02004KT 10SM VCTS FEW110 26/16 A2999 RMK AO2
LTG DSNT N AND NW SLP095 T02610161





000
SAUS45 KTWC 020926
MTRSAD
SPECI KSAD 020925Z AUTO 28011KT 10SM VCTS CLR 26/17 A2999 RMK AO2
T02560167





000
SAUS45 KTWC 020916
MTRSAD
SPECI KSAD 020915Z AUTO 27011KT 10SM FEW120 26/17 A2999 RMK AO2 LTG
DSNT NW T02560167





000
SAUS45 KTWC 020901
MTRSAD
SPECI KSAD 020900Z AUTO 27008KT 10SM VCTS FEW120 26/17 A2999 RMK AO2
LTG DSNT NW T02560172





000
SAUS45 KTWC 020853
MTRSAD
METAR KSAD 020851Z AUTO 24007KT 10SM FEW120 26/17 A2999 RMK AO2
SLP093 T02610167 51007





000
SAUS45 KTWC 020752
MTRSAD
METAR KSAD 020751Z AUTO 32004KT 10SM CLR 28/14 A2999 RMK AO2 SLP091
T02830139





000
SAUS45 KTWC 020652
MTRSAD
METAR KSAD 020651Z AUTO 10006KT 10SM CLR 28/14 A2998 RMK AO2 SLP089
T02830139 403720217





000
SAUS45 KTWC 020652
MTRSAD
METAR KSAD 020651Z AUTO 10006KT 10SM CLR 28/14 A2998 RMK AO2 SLP089
T02830139 403720217





000
SAUS45 KTWC 020553
MTRSAD
METAR KSAD 020551Z AUTO 08009KT 10SM CLR 29/14 A2997 RMK AO2 SLP087
T02940139 10356 20289 51007





000
SAUS45 KTWC 020553
MTRSAD
METAR KSAD 020551Z AUTO 08009KT 10SM CLR 29/14 A2997 RMK AO2 SLP087
T02940139 10356 20289 51007





000
SAUS45 KTWC 020452
MTRSAD
METAR KSAD 020451Z AUTO 10008KT 10SM CLR 30/14 A2997 RMK AO2 SLP087
T03000144





000
SAUS45 KTWC 020352
MTRSAD
METAR KSAD 020351Z AUTO 10008KT 10SM CLR 30/15 A2996 RMK AO2 SLP088
T03000150





000
SAUS45 KTWC 020252
MTRSAD
METAR KSAD 020251Z AUTO 08008KT 10SM CLR 31/15 A2995 RMK AO2 LTG
DSNT N AND NW SLP084 T03060150 51011





000
SAUS45 KTWC 020252
MTRSAD
METAR KSAD 020251Z AUTO 08008KT 10SM CLR 31/15 A2995 RMK AO2 LTG
DSNT N AND NW SLP084 T03060150 51011





000
SAUS45 KTWC 020152
MTRSAD
METAR KSAD 020151Z AUTO 11009KT 10SM CLR 31/16 A2994 RMK AO2 LTG
DSNT N SLP082 T03060156





000
SAUS45 KTWC 020052
MTRSAD
METAR KSAD 020051Z AUTO 13017G22KT 10SM CLR 32/14 A2995 RMK AO2
SLP085 T03170144





000
SAUS45 KTWC 020052
MTRSAD
METAR KSAD 020051Z AUTO 13017G22KT 10SM CLR 32/14 A2995 RMK AO2
SLP085 T03170144





000
SAUS45 KTWC 012353
MTRSAD
METAR KSAD 012351Z AUTO VRB04KT 10SM CLR 35/14 A2991 RMK AO2 LTG
DSNT N-SE SLP071 T03500139 10372 20317 58018





000
SAUS45 KTWC 012353
MTRSAD
METAR KSAD 012351Z AUTO VRB04KT 10SM CLR 35/14 A2991 RMK AO2 LTG
DSNT N-SE SLP071 T03500139 10372 20317 58018





000
SAUS45 KTWC 012252
MTRSAD
METAR KSAD 012251Z AUTO 13006G17KT 10SM CLR 33/14 A2994 RMK AO2 LTG
DSNT NW-E TSB31E46 SLP081 T03330144





000
SAUS45 KTWC 012250
MTRSAD
SPECI KSAD 012249Z AUTO 12008KT 10SM CLR 33/14 A2994 RMK AO2 LTG
DSNT NE AND E TSB31E46





000
SAUS45 KTWC 012250
MTRSAD
SPECI KSAD 012249Z AUTO 12008KT 10SM CLR 33/14 A2994 RMK AO2 LTG
DSNT NE AND E TSB31E46





000
SAUS45 KTWC 012238
MTRSAD
SPECI KSAD 012237Z AUTO VRB03KT 10SM TS CLR 34/14 A2995 RMK AO2 LTG
DSNT NE AND E TSB31 T03440139





000
SAUS45 KTWC 012201
MTRSAD
SPECI KSAD 012201Z AUTO 27009KT 10SM VCTS FEW100 36/14 A2994 RMK AO2
LTG DSNT E AND SE AND NW T03560139





000
SAUS45 KTWC 012152
MTRSAD
METAR KSAD 012151Z AUTO VRB03KT 10SM FEW095 34/14 A2995 RMK AO2
WSHFT 2105 LTG DSNT E AND SE AND NW SLP083 T03440139





000
SAUS45 KTWC 012122
MTRSAD
SPECI KSAD 012121Z AUTO 29013G23KT 10SM CLR 36/15 A2995 RMK AO2
WSHFT 2105 LTG DSNT E AND SE T03560150





000
SAUS45 KTWC 012052
MTRSAD
METAR KSAD 012051Z AUTO VRB03KT 10SM VCTS CLR 36/14 A2997 RMK AO2
LTG DSNT E AND SE SLP087 T03560139 58028





000
SAUS45 KTWC 012029
MTRSAD
SPECI KSAD 012028Z AUTO VRB03KT 10SM VCTS FEW080 35/14 A2998 RMK AO2
LTG DSNT W T03500139





000
SAUS45 KTWC 011952
MTRSAD
METAR KSAD 011951Z AUTO 34005KT 10SM CLR 36/14 A3000 RMK AO2 SLP100
T03560144





000
SAUS45 KTWC 011952
MTRSAD
METAR KSAD 011951Z AUTO 34005KT 10SM CLR 36/14 A3000 RMK AO2 SLP100
T03560144





000
SAUS45 KTWC 011853
MTRSAD
METAR KSAD 011851Z AUTO 12008KT 10SM CLR 34/15 A3004 RMK AO2 SLP112
T03390150





000
SAUS45 KTWC 011752
MTRSAD
METAR KSAD 011751Z AUTO 17006KT 10SM FEW090 32/15 A3006 RMK AO2
SLP121 T03170150 10322 20217 58006





000
SAUS45 KTWC 011752
MTRSAD
METAR KSAD 011751Z AUTO 17006KT 10SM FEW090 32/15 A3006 RMK AO2
SLP121 T03170150 10322 20217 58006





000
SAUS45 KTWC 011652
MTRSAD
METAR KSAD 011651Z AUTO VRB05KT 10SM CLR 30/16 A3007 RMK AO2 SLP129
T03000161





000
SAUS45 KTWC 011552
MTRSAD
METAR KSAD 011551Z AUTO 14007KT 10SM CLR 28/17 A3008 RMK AO2 SLP134
T02780167





000
SAUS45 KTWC 011552
MTRSAD
METAR KSAD 011551Z AUTO 14007KT 10SM CLR 28/17 A3008 RMK AO2 SLP134
T02780167





000
SAUS45 KTWC 011452
MTRSAD
METAR KSAD 011451Z AUTO 15008KT 10SM CLR 26/17 A3008 RMK AO2 SLP133
T02610172 51007





000
SAUS45 KTWC 011352
MTRSAD
METAR KSAD 011351Z AUTO 13008KT 10SM CLR 24/18 A3007 RMK AO2 SLP130
T02390183





000
SAUS45 KTWC 011352
MTRSAD
METAR KSAD 011351Z AUTO 13008KT 10SM CLR 24/18 A3007 RMK AO2 SLP130
T02390183





000
SAUS45 KTWC 011252
MTRSAD
METAR KSAD 011251Z AUTO 10005KT 10SM CLR 22/18 A3007 RMK AO2 SLP127
T02220183





000
SAUS45 KTWC 011252
MTRSAD
METAR KSAD 011251Z AUTO 10005KT 10SM CLR 22/18 A3007 RMK AO2 SLP127
T02220183





000
SAUS45 KTWC 011153
MTRSAD
METAR KSAD 011151Z AUTO 09005KT 10SM CLR 22/19 A3006 RMK AO2 SLP120
60004 70004 T02170194 10261 20217 55000





000
SAUS45 KTWC 011153
MTRSAD
METAR KSAD 011151Z AUTO 09005KT 10SM CLR 22/19 A3006 RMK AO2 SLP120
60004 70004 T02170194 10261 20217 55000





000
SAUS45 KTWC 011053
MTRSAD
METAR KSAD 011051Z AUTO 01004KT 10SM CLR 23/19 A3004 RMK AO2 SLP113
T02280189





000
SAUS45 KTWC 011053
MTRSAD
METAR KSAD 011051Z AUTO 01004KT 10SM CLR 23/19 A3004 RMK AO2 SLP113
T02280189





000
SAUS45 KTWC 010952
MTRSAD
METAR KSAD 010951Z AUTO 20008KT 10SM CLR 23/19 A3004 RMK AO2 SLP114
T02280189





000
SAUS45 KTWC 010852
MTRSAD
METAR KSAD 010851Z AUTO 00000KT 10SM CLR 24/18 A3006 RMK AO2 RAE01
TSE0758 SLP119 P0000 60004 T02390183 58017





000
SAUS45 KTWC 010852
MTRSAD
METAR KSAD 010851Z AUTO 00000KT 10SM CLR 24/18 A3006 RMK AO2 RAE01
TSE0758 SLP119 P0000 60004 T02390183 58017





000
SAUS45 KTWC 010833
MTRSAD
SPECI KSAD 010832Z AUTO 01010KT 10SM CLR 23/19 A3006 RMK AO2 RAE01
TSE0758 P0000 T02330189





000
SAUS45 KTWC 010805
MTRSAD
SPECI KSAD 010804Z AUTO 01012KT 10SM VCTS FEW041 SCT090 SCT110 22/19
A3009 RMK AO2 LTG DSNT E RAE01 TSE0758 P0000 T02220194





000
SAUS45 KTWC 010752
MTRSAD
METAR KSAD 010751Z AUTO 36007KT 10SM -TSRA SCT042 SCT080 BKN100
23/19 A3010 RMK AO2 LTG DSNT E RAB27 TSB09 SLP136 P0004 T02280194





000
SAUS45 KTWC 010716
MTRSAD
SPECI KSAD 010715Z AUTO 00000KT 10SM TS SCT090 25/17 A3013 RMK AO2
LTG DSNT S AND SW TSB09 T02500167





000
SAUS45 KTWC 010701
MTRSAD
SPECI KSAD 010700Z AUTO 19006KT 10SM VCTS FEW090 25/17 A3013 RMK AO2
LTG DSNT ALQDS T02500167





000
SAUS45 KTWC 010653
MTRSAD
METAR KSAD 010651Z AUTO 18008KT 10SM FEW090 26/16 A3013 RMK AO2 LTG
DSNT ALQDS SLP145 T02560161 403720244





000
SAUS45 KTWC 010552
MTRSAD
METAR KSAD 010551Z AUTO 32010KT 10SM CLR 26/16 A3011 RMK AO2 LTG
DSNT SW SLP141 T02560161 10361 20244 51018





000
SAUS45 KTWC 010453
MTRSAD
METAR KSAD 010451Z AUTO 33011KT 10SM BKN100 25/16 A3010 RMK AO2
SLP139 T02500161





000
SAUS45 KTWC 010453
MTRSAD
METAR KSAD 010451Z AUTO 33011KT 10SM BKN100 25/16 A3010 RMK AO2
SLP139 T02500161





000
SAUS45 KTWC 010352
MTRSAD
METAR KSAD 010351Z AUTO 29014KT 10SM CLR 24/17 A3007 RMK AO2 LTG
DSNT NE AND SW AND W SLP133 T02440167





000
SAUS45 KTWC 010253
MTRSAD
METAR KSAD 010251Z AUTO 30013KT 10SM CLR 27/16 A3005 RMK AO2 PK WND
30026/0206 LTG DSNT E-SW TSB0158E13 SLP124 T02670161 53021





000
SAUS45 KTWC 010228
MTRSAD
SPECI KSAD 010227Z AUTO 30017KT 10SM FEW120 27/16 A3005 RMK AO2 PK
WND 30026/0206 LTG DSNT NE-S TSB0158E13 T02670161





000
SAUS45 KTWC 010228
MTRSAD
SPECI KSAD 010227Z AUTO 30017KT 10SM FEW120 27/16 A3005 RMK AO2 PK
WND 30026/0206 LTG DSNT NE-S TSB0158E13 T02670161





000
SAUS45 KTWC 010220
MTRSAD
SPECI KSAD 010219Z AUTO 31017G24KT 10SM VCTS FEW120 27/16 A3005 RMK
AO2 PK WND 30026/0206 LTG DSNT E-S TSB0158E13 T02720161





000
SAUS45 KTWC 010200
MTRSAD
SPECI KSAD 010158Z AUTO 30017G23KT 10SM TS FEW100 29/15 A3005 RMK
AO2 LTG DSNT E AND SE TSB58 PRESRR T02940150





000
SAUS45 KTWC 010152
MTRSAD
METAR KSAD 010151Z AUTO 29015G23KT 10SM SCT100 30/15 A3003 RMK AO2
PK WND 30037/0123 WSHFT 0122 LTG DSNT E AND SE PRESRR SLP114
T03000150





000
SAUS45 KTWC 010143
MTRSAD
SPECI KSAD 010142Z AUTO 29020G27KT 10SM BKN100 31/15 A3002 RMK AO2
PK WND 30037/0123 WSHFT 0122 LTG DSNT E AND SE AND NW T03060150





000
SAUS45 KTWC 010143
MTRSAD
SPECI KSAD 010142Z AUTO 29020G27KT 10SM BKN100 31/15 A3002 RMK AO2
PK WND 30037/0123 WSHFT 0122 LTG DSNT E AND SE AND NW T03060150





000
SAUS45 KTWC 010131
MTRSAD
SPECI KSAD 010130Z AUTO 29025G37KT 9SM VCTS SQ SCT110 31/14 A3000
RMK AO2 PK WND 30037/0123 LTG DSNT E AND SE T03060144





000
SAUS45 KTWC 010131
MTRSAD
SPECI KSAD 010130Z AUTO 29025G37KT 9SM VCTS SQ SCT110 31/14 A3000
RMK AO2 PK WND 30037/0123 LTG DSNT E AND SE T03060144





000
SAUS45 KTWC 010113
MTRSAD
SPECI KSAD 010112Z AUTO 03013G20KT 10SM VCTS CLR 33/14 A2998 RMK AO2
LTG DSNT E AND SE T03330139





000
SAUS45 KTWC 010113
MTRSAD
SPECI KSAD 010112Z AUTO 03013G20KT 10SM VCTS CLR 33/14 A2998 RMK AO2
LTG DSNT E AND SE T03330139





000
SAUS45 KTWC 010052
MTRSAD
METAR KSAD 010051Z AUTO 03016G23KT 10SM SCT110 33/14 A2997 RMK AO2
LTG DSNT E AND SE AND NW SLP090 T03330139





000
SAUS45 KTWC 312352
MTRSAD
METAR KSAD 312351Z AUTO 13009KT 10SM CLR 36/13 A2999 RMK AO2 LTG
DSNT NW SLP091 T03560128 10372 20306 56022





000
SAUS45 KTWC 312252
MTRSAD
METAR KSAD 312251Z AUTO 05006KT 10SM CLR 37/13 A2999 RMK AO2 LTG
DSNT N AND NW SLP090 T03670133





000
SAUS45 KTWC 312252
MTRSAD
METAR KSAD 312251Z AUTO 05006KT 10SM CLR 37/13 A2999 RMK AO2 LTG
DSNT N AND NW SLP090 T03670133





000
SAUS45 KTWC 312152
MTRSAD
METAR KSAD 312151Z AUTO 08010G18KT 10SM FEW080 SCT120 37/14 A3002
RMK AO2 LTG DSNT N SLP099 T03670139





000
SAUS45 KTWC 312052
MTRSAD
METAR KSAD 312051Z AUTO 17007G17KT 10SM FEW110 35/14 A3006 RMK AO2
LTG DSNT N-E SLP114 T03500139 58027





000
SAUS45 KTWC 312052
MTRSAD
METAR KSAD 312051Z AUTO 17007G17KT 10SM FEW110 35/14 A3006 RMK AO2
LTG DSNT N-E SLP114 T03500139 58027





000
SAUS45 KTWC 311953
MTRSAD
METAR KSAD 311951Z AUTO 18008KT 10SM CLR 34/13 A3009 RMK AO2 LTG
DSNT ALQDS SLP127 T03440133





000
SAUS45 KTWC 311852
MTRSAD
METAR KSAD 311851Z AUTO 11008KT 10SM FEW120 33/14 A3012 RMK AO2
SLP139 T03280139





000
SAUS45 KTWC 311752
MTRSAD
METAR KSAD 311751Z AUTO 12006KT 10SM CLR 31/14 A3015 RMK AO2 SLP149
T03110139 10317 20261 58012





000
SAUS45 KTWC 311652
MTRSAD
METAR KSAD 311651Z AUTO 07010KT 10SM CLR 30/14 A3016 RMK AO2 SLP155
T03000144





000
SAUS45 KTWC 311652
MTRSAD
METAR KSAD 311651Z AUTO 07010KT 10SM CLR 30/14 A3016 RMK AO2 SLP155
T03000144





000
SAUS45 KTWC 311552
MTRSAD
METAR KSAD 311551Z AUTO 08012KT 10SM CLR 28/16 A3018 RMK AO2 SLP161
T02780156





000
SAUS45 KTWC 311452
MTRSAD
METAR KSAD 311451Z AUTO 09010KT 10SM FEW070 26/16 A3018 RMK AO2
SLP162 T02610161 50026





000
SAUS45 KTWC 311452
MTRSAD
METAR KSAD 311451Z AUTO 09010KT 10SM FEW070 26/16 A3018 RMK AO2
SLP162 T02610161 50026





000
SAUS45 KTWC 311352
MTRSAD
METAR KSAD 311351Z AUTO 10012KT 10SM CLR 26/17 A3018 RMK AO2 SLP162
T02610167





    US Dept of Commerce
    National Oceanic and Atmospheric Administration
    National Weather Service
    1325 East West Highway
    Silver Spring, MD 20910
    Page Author: NWS Internet Services Team
Disclaimer
Information Quality
Credits
Glossary
Privacy Policy
Freedom of Information Act (FOIA)
About Us
Career Opportunities